sensor_id;sensor_type;location;lat;lon;timestamp;pressure;altitude;pressure_sealevel;temperature;humidity
19236;BME280;9752;54.270;12.470;2022-08-19T00:00:19;101027.22;;;19.77;100.00
19236;BME280;9752;54.270;12.470;2022-08-19T00:05:22;101028.94;;;19.75;100.00
19236;BME280;9752;54.270;12.470;2022-08-19T00:10:24;101015.69;;;19.72;100.00
19236;BME280;9752;54.270;12.470;2022-08-19T00:15:26;101016.47;;;19.69;100.00
19236;BME280;9752;54.270;12.470;2022-08-19T00:20:29;101015.41;;;19.63;100.00
19236;BME280;9752;54.270;12.470;2022-08-19T00:25:31;101012.53;;;19.54;100.00
19236;BME280;9752;54.270;12.470;2022-08-19T00:30:33;101007.34;;;19.57;100.00
19236;BME280;9752;54.270;12.470;2022-08-19T00:35:37;101009.13;;;19.58;100.00
19236;BME280;9752;54.270;12.470;2022-08-19T00:40:39;101004.09;;;19.67;100.00
19236;BME280;9752;54.270;12.470;2022-08-19T00:45:41;101006.09;;;19.74;100.00
19236;BME280;9752;54.270;12.470;2022-08-19T00:50:45;101006.19;;;19.77;100.00
19236;BME280;9752;54.270;12.470;2022-08-19T00:55:51;101004.47;;;19.79;100.00
19236;BME280;9752;54.270;12.470;2022-08-19T01:00:54;101004.44;;;19.78;100.00
19236;BME280;9752;54.270;12.470;2022-08-19T01:05:57;100993.94;;;19.79;100.00
19236;BME280;9752;54.270;12.470;2022-08-19T01:11:00;100980.88;;;19.84;100.00
19236;BME280;9752;54.270;12.470;2022-08-19T01:16:04;100981.03;;;19.88;100.00
19236;BME280;9752;54.270;12.470;2022-08-19T01:21:16;100975.91;;;19.95;100.00
19236;BME280;9752;54.270;12.470;2022-08-19T01:26:23;100982.22;;;20.03;100.00
19236;BME280;9752;54.270;12.470;2022-08-19T01:31:27;100986.66;;;20.04;100.00
19236;BME280;9752;54.270;12.470;2022-08-19T01:36:34;100993.69;;;20.05;100.00
19236;BME280;9752;54.270;12.470;2022-08-19T01:41:38;101007.84;;;20.08;100.00
19236;BME280;9752;54.270;12.470;2022-08-19T01:46:41;101013.28;;;20.15;100.00
19236;BME280;9752;54.270;12.470;2022-08-19T01:51:43;101027.38;;;20.18;100.00
19236;BME280;9752;54.270;12.470;2022-08-19T01:56:46;101016.00;;;20.19;100.00
19236;BME280;9752;54.270;12.470;2022-08-19T02:01:48;100993.13;;;20.18;100.00
19236;BME280;9752;54.270;12.470;2022-08-19T02:06:49;100981.72;;;20.18;100.00
19236;BME280;9752;54.270;12.470;2022-08-19T02:11:52;100973.59;;;20.08;100.00
19236;BME280;9752;54.270;12.470;2022-08-19T02:16:54;100989.25;;;20.02;100.00
19236;BME280;9752;54.270;12.470;2022-08-19T02:21:56;100973.22;;;19.93;100.00
19236;BME280;9752;54.270;12.470;2022-08-19T02:26:59;100975.13;;;19.99;100.00
19236;BME280;9752;54.270;12.470;2022-08-19T02:32:01;100979.59;;;20.03;100.00
19236;BME280;9752;54.270;12.470;2022-08-19T02:37:04;100985.75;;;20.02;100.00
19236;BME280;9752;54.270;12.470;2022-08-19T02:42:07;100997.94;;;19.98;100.00
19236;BME280;9752;54.270;12.470;2022-08-19T02:47:09;101003.00;;;19.91;100.00
19236;BME280;9752;54.270;12.470;2022-08-19T02:52:11;100982.75;;;19.88;100.00
19236;BME280;9752;54.270;12.470;2022-08-19T02:57:14;100984.50;;;19.87;100.00
19236;BME280;9752;54.270;12.470;2022-08-19T03:02:16;100981.06;;;19.90;100.00
19236;BME280;9752;54.270;12.470;2022-08-19T03:07:18;100980.25;;;19.93;100.00
19236;BME280;9752;54.270;12.470;2022-08-19T03:12:21;100973.28;;;19.95;100.00
19236;BME280;9752;54.270;12.470;2022-08-19T03:17:23;100966.38;;;20.00;100.00
19236;BME280;9752;54.270;12.470;2022-08-19T03:22:25;100971.03;;;20.12;100.00
19236;BME280;9752;54.270;12.470;2022-08-19T03:27:28;100968.50;;;20.16;100.00
19236;BME280;9752;54.270;12.470;2022-08-19T03:32:30;100975.72;;;20.23;100.00
19236;BME280;9752;54.270;12.470;2022-08-19T03:37:32;100982.91;;;20.31;100.00
19236;BME280;9752;54.270;12.470;2022-08-19T03:42:35;100975.13;;;20.37;100.00
19236;BME280;9752;54.270;12.470;2022-08-19T03:47:37;100984.94;;;20.42;100.00
19236;BME280;9752;54.270;12.470;2022-08-19T03:52:38;100989.38;;;20.45;100.00
19236;BME280;9752;54.270;12.470;2022-08-19T03:57:42;100982.41;;;20.47;100.00
19236;BME280;9752;54.270;12.470;2022-08-19T04:02:45;100977.69;;;20.32;100.00
19236;BME280;9752;54.270;12.470;2022-08-19T04:07:47;100987.88;;;20.18;100.00
19236;BME280;9752;54.270;12.470;2022-08-19T04:12:50;100983.34;;;20.11;100.00
19236;BME280;9752;54.270;12.470;2022-08-19T04:17:51;100988.50;;;20.08;100.00
19236;BME280;9752;54.270;12.470;2022-08-19T04:22:53;100985.78;;;20.05;100.00
19236;BME280;9752;54.270;12.470;2022-08-19T04:27:56;101003.38;;;20.06;100.00
19236;BME280;9752;54.270;12.470;2022-08-19T04:32:58;101014.00;;;20.09;100.00
19236;BME280;9752;54.270;12.470;2022-08-19T04:38:00;101027.13;;;20.07;100.00
19236;BME280;9752;54.270;12.470;2022-08-19T04:43:03;101035.00;;;20.06;100.00
19236;BME280;9752;54.270;12.470;2022-08-19T04:48:05;101035.03;;;20.07;100.00
19236;BME280;9752;54.270;12.470;2022-08-19T04:53:07;101031.56;;;20.10;100.00
19236;BME280;9752;54.270;12.470;2022-08-19T04:58:10;101031.66;;;20.13;100.00
19236;BME280;9752;54.270;12.470;2022-08-19T05:03:11;101024.69;;;20.15;100.00
19236;BME280;9752;54.270;12.470;2022-08-19T05:08:18;101022.19;;;20.21;100.00
19236;BME280;9752;54.270;12.470;2022-08-19T05:13:22;101018.75;;;20.24;100.00
19236;BME280;9752;54.270;12.470;2022-08-19T05:18:23;101030.25;;;20.27;100.00
19236;BME280;9752;54.270;12.470;2022-08-19T05:23:43;101025.50;;;20.49;100.00
19236;BME280;9752;54.270;12.470;2022-08-19T05:28:46;101037.22;;;20.60;100.00
19236;BME280;9752;54.270;12.470;2022-08-19T05:33:48;101035.56;;;20.65;100.00
19236;BME280;9752;54.270;12.470;2022-08-19T05:38:50;101037.06;;;20.56;100.00
19236;BME280;9752;54.270;12.470;2022-08-19T05:43:54;101042.38;;;20.57;100.00
19236;BME280;9752;54.270;12.470;2022-08-19T05:48:56;101040.03;;;20.70;100.00
19236;BME280;9752;54.270;12.470;2022-08-19T05:53:58;101039.31;;;20.77;100.00
19236;BME280;9752;54.270;12.470;2022-08-19T05:59:01;101040.94;;;21.10;100.00
19236;BME280;9752;54.270;12.470;2022-08-19T06:04:03;101031.59;;;21.25;100.00
19236;BME280;9752;54.270;12.470;2022-08-19T06:09:07;101031.78;;;21.35;100.00
19236;BME280;9752;54.270;12.470;2022-08-19T06:14:14;101028.88;;;21.21;100.00
19236;BME280;9752;54.270;12.470;2022-08-19T06:19:17;101040.88;;;21.06;100.00
19236;BME280;9752;54.270;12.470;2022-08-19T06:24:22;101044.72;;;21.24;100.00
19236;BME280;9752;54.270;12.470;2022-08-19T06:29:27;101043.44;;;21.44;100.00
19236;BME280;9752;54.270;12.470;2022-08-19T06:34:32;101039.72;;;21.36;100.00
19236;BME280;9752;54.270;12.470;2022-08-19T06:39:36;101042.66;;;21.50;100.00
19236;BME280;9752;54.270;12.470;2022-08-19T06:44:41;101031.03;;;21.43;100.00
19236;BME280;9752;54.270;12.470;2022-08-19T06:49:44;101031.81;;;21.38;100.00
19236;BME280;9752;54.270;12.470;2022-08-19T06:54:46;101025.22;;;21.16;100.00
19236;BME280;9752;54.270;12.470;2022-08-19T06:59:49;101026.75;;;21.04;100.00
19236;BME280;9752;54.270;12.470;2022-08-19T07:04:51;101016.63;;;20.83;100.00
19236;BME280;9752;54.270;12.470;2022-08-19T07:09:53;101036.69;;;20.77;100.00
19236;BME280;9752;54.270;12.470;2022-08-19T07:14:56;101036.66;;;20.74;100.00
19236;BME280;9752;54.270;12.470;2022-08-19T07:19:58;101038.34;;;20.72;100.00
19236;BME280;9752;54.270;12.470;2022-08-19T07:25:00;101031.16;;;20.64;100.00
19236;BME280;9752;54.270;12.470;2022-08-19T07:30:05;101028.03;;;20.82;100.00
19236;BME280;9752;54.270;12.470;2022-08-19T07:35:08;101029.03;;;20.88;100.00
19236;BME280;9752;54.270;12.470;2022-08-19T07:40:11;101031.00;;;20.98;100.00
19236;BME280;9752;54.270;12.470;2022-08-19T07:45:14;101031.16;;;21.04;100.00
19236;BME280;9752;54.270;12.470;2022-08-19T07:50:18;101033.88;;;21.09;100.00
19236;BME280;9752;54.270;12.470;2022-08-19T07:55:25;101024.88;;;20.99;100.00
19236;BME280;9752;54.270;12.470;2022-08-19T08:00:29;101046.06;;;21.02;100.00
19236;BME280;9752;54.270;12.470;2022-08-19T08:05:30;101049.44;;;20.96;100.00
19236;BME280;9752;54.270;12.470;2022-08-19T08:10:50;101053.22;;;20.68;100.00
19236;BME280;9752;54.270;12.470;2022-08-19T08:15:53;101050.19;;;20.54;100.00
19236;BME280;9752;54.270;12.470;2022-08-19T08:20:55;101046.97;;;20.64;100.00
19236;BME280;9752;54.270;12.470;2022-08-19T08:25:58;101053.97;;;20.62;100.00
19236;BME280;9752;54.270;12.470;2022-08-19T08:31:01;101063.38;;;20.54;100.00
19236;BME280;9752;54.270;12.470;2022-08-19T08:36:05;101082.22;;;20.70;100.00
19236;BME280;9752;54.270;12.470;2022-08-19T08:41:13;101082.34;;;20.74;100.00
19236;BME280;9752;54.270;12.470;2022-08-19T08:46:26;101076.81;;;20.63;100.00
19236;BME280;9752;54.270;12.470;2022-08-19T08:51:36;101074.31;;;20.35;100.00
19236;BME280;9752;54.270;12.470;2022-08-19T08:56:39;101081.41;;;20.37;100.00
19236;BME280;9752;54.270;12.470;2022-08-19T09:01:43;101093.50;;;20.64;100.00
19236;BME280;9752;54.270;12.470;2022-08-19T09:06:51;101088.41;;;20.70;100.00
19236;BME280;9752;54.270;12.470;2022-08-19T09:12:16;101079.44;;;20.63;100.00
19236;BME280;9752;54.270;12.470;2022-08-19T09:17:25;101083.81;;;20.63;100.00
19236;BME280;9752;54.270;12.470;2022-08-19T09:22:31;101080.53;;;20.72;100.00
19236;BME280;9752;54.270;12.470;2022-08-19T09:27:33;101071.94;;;20.44;100.00
19236;BME280;9752;54.270;12.470;2022-08-19T09:32:39;101071.84;;;20.41;100.00
19236;BME280;9752;54.270;12.470;2022-08-19T09:37:42;101061.44;;;20.45;100.00
19236;BME280;9752;54.270;12.470;2022-08-19T09:42:44;101060.63;;;20.50;100.00
19236;BME280;9752;54.270;12.470;2022-08-19T09:47:49;101069.66;;;20.59;100.00
19236;BME280;9752;54.270;12.470;2022-08-19T09:52:51;101071.50;;;20.62;100.00
19236;BME280;9752;54.270;12.470;2022-08-19T09:57:57;101067.34;;;20.72;100.00
19236;BME280;9752;54.270;12.470;2022-08-19T10:03:00;101069.06;;;20.71;100.00
19236;BME280;9752;54.270;12.470;2022-08-19T10:08:02;101071.75;;;20.73;100.00
19236;BME280;9752;54.270;12.470;2022-08-19T10:13:04;101066.66;;;20.80;100.00
19236;BME280;9752;54.270;12.470;2022-08-19T10:18:07;101064.91;;;20.81;100.00
19236;BME280;9752;54.270;12.470;2022-08-19T10:23:09;101072.81;;;20.81;100.00
19236;BME280;9752;54.270;12.470;2022-08-19T10:28:11;101068.53;;;20.86;100.00
19236;BME280;9752;54.270;12.470;2022-08-19T10:33:14;101073.69;;;20.80;100.00
19236;BME280;9752;54.270;12.470;2022-08-19T10:38:16;101073.38;;;20.67;100.00
19236;BME280;9752;54.270;12.470;2022-08-19T10:43:18;101071.97;;;20.82;100.00
19236;BME280;9752;54.270;12.470;2022-08-19T10:48:21;101068.63;;;20.89;100.00
19236;BME280;9752;54.270;12.470;2022-08-19T10:53:23;101064.13;;;20.85;100.00
19236;BME280;9752;54.270;12.470;2022-08-19T10:58:25;101068.53;;;20.86;100.00
19236;BME280;9752;54.270;12.470;2022-08-19T11:03:29;101070.72;;;21.05;100.00
19236;BME280;9752;54.270;12.470;2022-08-19T11:08:31;101070.28;;;21.26;100.00
19236;BME280;9752;54.270;12.470;2022-08-19T11:13:37;101066.22;;;21.42;100.00
19236;BME280;9752;54.270;12.470;2022-08-19T11:18:46;101053.78;;;21.81;100.00
19236;BME280;9752;54.270;12.470;2022-08-19T11:23:50;101061.00;;;21.90;100.00
19236;BME280;9752;54.270;12.470;2022-08-19T11:28:52;101062.09;;;22.01;100.00
19236;BME280;9752;54.270;12.470;2022-08-19T11:33:57;101065.19;;;22.26;100.00
19236;BME280;9752;54.270;12.470;2022-08-19T11:39:00;101076.59;;;21.77;100.00
19236;BME280;9752;54.270;12.470;2022-08-19T11:44:03;101071.34;;;21.35;100.00
19236;BME280;9752;54.270;12.470;2022-08-19T11:49:06;101063.94;;;21.17;100.00
19236;BME280;9752;54.270;12.470;2022-08-19T11:54:10;101074.97;;;20.99;100.00
19236;BME280;9752;54.270;12.470;2022-08-19T11:59:13;101072.19;;;20.91;100.00
19236;BME280;9752;54.270;12.470;2022-08-19T12:04:16;101068.88;;;21.01;100.00
19236;BME280;9752;54.270;12.470;2022-08-19T12:09:17;101079.28;;;20.95;100.00
19236;BME280;9752;54.270;12.470;2022-08-19T12:14:19;101066.78;;;21.28;100.00
19236;BME280;9752;54.270;12.470;2022-08-19T12:19:23;101064.38;;;21.38;100.00
19236;BME280;9752;54.270;12.470;2022-08-19T12:24:25;101067.47;;;21.17;100.00
19236;BME280;9752;54.270;12.470;2022-08-19T12:29:27;101072.94;;;20.85;100.00
19236;BME280;9752;54.270;12.470;2022-08-19T12:34:32;101068.84;;;20.62;100.00
19236;BME280;9752;54.270;12.470;2022-08-19T12:39:35;101065.94;;;20.51;100.00
19236;BME280;9752;54.270;12.470;2022-08-19T12:44:39;101057.56;;;20.66;100.00
19236;BME280;9752;54.270;12.470;2022-08-19T12:49:42;101055.28;;;20.83;100.00
19236;BME280;9752;54.270;12.470;2022-08-19T12:54:45;101053.97;;;21.03;100.00
19236;BME280;9752;54.270;12.470;2022-08-19T12:59:51;101066.41;;;21.09;100.00
19236;BME280;9752;54.270;12.470;2022-08-19T13:04:55;101059.25;;;21.02;100.00
19236;BME280;9752;54.270;12.470;2022-08-19T13:09:58;101055.88;;;21.52;100.00
19236;BME280;9752;54.270;12.470;2022-08-19T13:15:00;101059.03;;;21.79;100.00
19236;BME280;9752;54.270;12.470;2022-08-19T13:20:04;101069.47;;;21.29;100.00
19236;BME280;9752;54.270;12.470;2022-08-19T13:25:08;101053.97;;;21.44;100.00
19236;BME280;9752;54.270;12.470;2022-08-19T13:30:12;101055.94;;;21.12;100.00
19236;BME280;9752;54.270;12.470;2022-08-19T13:35:34;101045.00;;;20.95;100.00
19236;BME280;9752;54.270;12.470;2022-08-19T13:40:36;101047.03;;;20.67;100.00
19236;BME280;9752;54.270;12.470;2022-08-19T13:45:38;101052.50;;;20.77;100.00
19236;BME280;9752;54.270;12.470;2022-08-19T13:50:43;101047.19;;;20.74;100.00
19236;BME280;9752;54.270;12.470;2022-08-19T13:55:47;101048.91;;;20.72;100.00
19236;BME280;9752;54.270;12.470;2022-08-19T14:00:50;101045.72;;;20.88;100.00
19236;BME280;9752;54.270;12.470;2022-08-19T14:05:53;101043.06;;;20.86;100.00
19236;BME280;9752;54.270;12.470;2022-08-19T14:10:55;101049.03;;;20.78;100.00
19236;BME280;9752;54.270;12.470;2022-08-19T14:15:57;101053.00;;;20.98;100.00
19236;BME280;9752;54.270;12.470;2022-08-19T14:21:00;101047.22;;;21.16;100.00
19236;BME280;9752;54.270;12.470;2022-08-19T14:26:04;101049.97;;;21.21;100.00
19236;BME280;9752;54.270;12.470;2022-08-19T14:31:05;101039.56;;;21.30;100.00
19236;BME280;9752;54.270;12.470;2022-08-19T14:36:09;101040.13;;;21.14;100.00
19236;BME280;9752;54.270;12.470;2022-08-19T14:41:13;101037.75;;;21.26;100.00
19236;BME280;9752;54.270;12.470;2022-08-19T14:46:18;101043.81;;;21.22;100.00
19236;BME280;9752;54.270;12.470;2022-08-19T14:51:23;101032.34;;;21.20;100.00
19236;BME280;9752;54.270;12.470;2022-08-19T14:56:28;101038.41;;;21.16;100.00
19236;BME280;9752;54.270;12.470;2022-08-19T15:01:30;101039.16;;;21.09;100.00
19236;BME280;9752;54.270;12.470;2022-08-19T15:06:33;101044.94;;;20.92;100.00
19236;BME280;9752;54.270;12.470;2022-08-19T15:11:36;101052.63;;;20.83;100.00
19236;BME280;9752;54.270;12.470;2022-08-19T15:16:38;101048.16;;;20.79;100.00
19236;BME280;9752;54.270;12.470;2022-08-19T15:21:43;101055.06;;;20.72;100.00
19236;BME280;9752;54.270;12.470;2022-08-19T15:26:45;101062.06;;;20.72;100.00
19236;BME280;9752;54.270;12.470;2022-08-19T15:31:46;101055.31;;;20.48;100.00
19236;BME280;9752;54.270;12.470;2022-08-19T15:36:50;101063.22;;;20.48;100.00
19236;BME280;9752;54.270;12.470;2022-08-19T15:41:52;101059.16;;;20.24;100.00
19236;BME280;9752;54.270;12.470;2022-08-19T15:46:53;101061.06;;;20.32;100.00
19236;BME280;9752;54.270;12.470;2022-08-19T15:51:56;101060.81;;;20.21;100.00
19236;BME280;9752;54.270;12.470;2022-08-19T15:56:59;101078.03;;;20.41;100.00
19236;BME280;9752;54.270;12.470;2022-08-19T16:02:20;101065.16;;;20.55;100.00
19236;BME280;9752;54.270;12.470;2022-08-19T16:07:41;101070.41;;;20.54;100.00
19236;BME280;9752;54.270;12.470;2022-08-19T16:12:43;101072.63;;;20.37;100.00
19236;BME280;9752;54.270;12.470;2022-08-19T16:17:45;101071.47;;;20.25;100.00
19236;BME280;9752;54.270;12.470;2022-08-19T16:22:48;101067.91;;;20.23;100.00
19236;BME280;9752;54.270;12.470;2022-08-19T16:27:50;101076.09;;;20.01;100.00
19236;BME280;9752;54.270;12.470;2022-08-19T16:32:53;101079.63;;;20.01;100.00
19236;BME280;9752;54.270;12.470;2022-08-19T16:37:56;101071.56;;;19.95;100.00
19236;BME280;9752;54.270;12.470;2022-08-19T16:42:59;101076.00;;;19.96;100.00
19236;BME280;9752;54.270;12.470;2022-08-19T16:48:02;101081.13;;;19.92;100.00
19236;BME280;9752;54.270;12.470;2022-08-19T16:53:06;101066.75;;;19.79;100.00
19236;BME280;9752;54.270;12.470;2022-08-19T16:58:08;101071.34;;;19.56;100.00
19236;BME280;9752;54.270;12.470;2022-08-19T17:03:10;101073.38;;;19.66;100.00
19236;BME280;9752;54.270;12.470;2022-08-19T17:08:14;101080.34;;;19.64;100.00
19236;BME280;9752;54.270;12.470;2022-08-19T17:13:17;101075.03;;;19.62;100.00
19236;BME280;9752;54.270;12.470;2022-08-19T17:18:19;101070.75;;;19.66;100.00
19236;BME280;9752;54.270;12.470;2022-08-19T17:23:23;101074.22;;;19.65;100.00
19236;BME280;9752;54.270;12.470;2022-08-19T17:28:27;101082.41;;;19.74;100.00
19236;BME280;9752;54.270;12.470;2022-08-19T17:33:29;101081.34;;;19.69;100.00
19236;BME280;9752;54.270;12.470;2022-08-19T17:38:33;101072.63;;;19.70;100.00
19236;BME280;9752;54.270;12.470;2022-08-19T17:43:36;101079.63;;;19.69;100.00
19236;BME280;9752;54.270;12.470;2022-08-19T17:48:38;101073.38;;;19.66;100.00
19236;BME280;9752;54.270;12.470;2022-08-19T17:53:41;101070.00;;;19.70;100.00
19236;BME280;9752;54.270;12.470;2022-08-19T17:58:43;101063.69;;;19.65;100.00
19236;BME280;9752;54.270;12.470;2022-08-19T18:03:46;101058.47;;;19.66;100.00
19236;BME280;9752;54.270;12.470;2022-08-19T18:08:50;101066.53;;;19.71;100.00
19236;BME280;9752;54.270;12.470;2022-08-19T18:13:51;101063.16;;;19.77;100.00
19236;BME280;9752;54.270;12.470;2022-08-19T18:18:53;101064.25;;;19.83;100.00
19236;BME280;9752;54.270;12.470;2022-08-19T18:23:57;101079.06;;;19.80;100.00
19236;BME280;9752;54.270;12.470;2022-08-19T18:28:59;101084.28;;;19.78;100.00
19236;BME280;9752;54.270;12.470;2022-08-19T18:34:01;101079.00;;;19.78;100.00
19236;BME280;9752;54.270;12.470;2022-08-19T18:39:05;101080.66;;;19.75;100.00
19236;BME280;9752;54.270;12.470;2022-08-19T18:44:24;101085.91;;;19.73;100.00
19236;BME280;9752;54.270;12.470;2022-08-19T18:49:55;101087.69;;;19.74;100.00
19236;BME280;9752;54.270;12.470;2022-08-19T18:54:58;101096.56;;;19.78;100.00
19236;BME280;9752;54.270;12.470;2022-08-19T19:00:00;101086.91;;;19.78;100.00
19236;BME280;9752;54.270;12.470;2022-08-19T19:05:04;101071.13;;;19.78;100.00
19236;BME280;9752;54.270;12.470;2022-08-19T19:10:08;101069.41;;;19.80;100.00
19236;BME280;9752;54.270;12.470;2022-08-19T19:15:10;101066.78;;;19.80;100.00
19236;BME280;9752;54.270;12.470;2022-08-19T19:20:12;101071.22;;;19.81;100.00
19236;BME280;9752;54.270;12.470;2022-08-19T19:25:15;101076.38;;;19.78;100.00
19236;BME280;9752;54.270;12.470;2022-08-19T19:30:19;101068.38;;;19.74;100.00
19236;BME280;9752;54.270;12.470;2022-08-19T19:35:24;101082.28;;;19.69;100.00
19236;BME280;9752;54.270;12.470;2022-08-19T19:40:28;101083.88;;;19.64;100.00
19236;BME280;9752;54.270;12.470;2022-08-19T19:45:29;101094.44;;;19.66;100.00
19236;BME280;9752;54.270;12.470;2022-08-19T19:50:31;101093.50;;;19.64;100.00
19236;BME280;9752;54.270;12.470;2022-08-19T19:55:34;101101.47;;;19.65;100.00
19236;BME280;9752;54.270;12.470;2022-08-19T20:00:36;101111.13;;;19.66;100.00
19236;BME280;9752;54.270;12.470;2022-08-19T20:05:38;101123.50;;;19.70;100.00
19236;BME280;9752;54.270;12.470;2022-08-19T20:10:42;101126.31;;;19.75;100.00
19236;BME280;9752;54.270;12.470;2022-08-19T20:15:44;101127.06;;;19.71;100.00
19236;BME280;9752;54.270;12.470;2022-08-19T20:20:46;101133.09;;;19.68;100.00
19236;BME280;9752;54.270;12.470;2022-08-19T20:25:51;101135.69;;;19.67;100.00
19236;BME280;9752;54.270;12.470;2022-08-19T20:30:53;101146.94;;;19.61;100.00
19236;BME280;9752;54.270;12.470;2022-08-19T20:35:55;101146.88;;;19.58;100.00
19236;BME280;9752;54.270;12.470;2022-08-19T20:40:58;101146.75;;;19.55;100.00
19236;BME280;9752;54.270;12.470;2022-08-19T20:46:00;101159.84;;;19.52;100.00
19236;BME280;9752;54.270;12.470;2022-08-19T20:51:03;101143.19;;;19.53;100.00
19236;BME280;9752;54.270;12.470;2022-08-19T20:56:07;101146.72;;;19.54;100.00
19236;BME280;9752;54.270;12.470;2022-08-19T21:01:09;101142.31;;;19.53;100.00
19236;BME280;9752;54.270;12.470;2022-08-19T21:06:12;101142.13;;;19.46;100.00
19236;BME280;9752;54.270;12.470;2022-08-19T21:11:15;101137.81;;;19.48;100.00
19236;BME280;9752;54.270;12.470;2022-08-19T21:16:17;101128.00;;;19.43;100.00
19236;BME280;9752;54.270;12.470;2022-08-19T21:21:19;101121.66;;;19.36;100.00
19236;BME280;9752;54.270;12.470;2022-08-19T21:26:23;101129.50;;;19.35;100.00
19236;BME280;9752;54.270;12.470;2022-08-19T21:31:25;101137.31;;;19.31;100.00
19236;BME280;9752;54.270;12.470;2022-08-19T21:36:26;101143.44;;;19.32;100.00
19236;BME280;9752;54.270;12.470;2022-08-19T21:41:29;101141.47;;;19.25;100.00
19236;BME280;9752;54.270;12.470;2022-08-19T21:46:31;101136.16;;;19.23;100.00
19236;BME280;9752;54.270;12.470;2022-08-19T21:51:33;101136.22;;;19.25;100.00
19236;BME280;9752;54.270;12.470;2022-08-19T21:56:37;101131.00;;;19.26;100.00
19236;BME280;9752;54.270;12.470;2022-08-19T22:01:39;101123.00;;;19.23;100.00
19236;BME280;9752;54.270;12.470;2022-08-19T22:06:41;101135.28;;;19.23;100.00
19236;BME280;9752;54.270;12.470;2022-08-19T22:11:44;101119.66;;;19.27;100.00
19236;BME280;9752;54.270;12.470;2022-08-19T22:16:46;101122.31;;;19.29;100.00
19236;BME280;9752;54.270;12.470;2022-08-19T22:21:47;101125.75;;;19.26;100.00
19236;BME280;9752;54.270;12.470;2022-08-19T22:26:50;101119.66;;;19.27;100.00
19236;BME280;9752;54.270;12.470;2022-08-19T22:31:52;101130.72;;;19.17;100.00
19236;BME280;9752;54.270;12.470;2022-08-19T22:36:54;101127.09;;;19.14;100.00
19236;BME280;9752;54.270;12.470;2022-08-19T22:41:58;101116.31;;;19.04;100.00
19236;BME280;9752;54.270;12.470;2022-08-19T22:46:59;101115.31;;;19.01;100.00
19236;BME280;9752;54.270;12.470;2022-08-19T22:52:01;101116.97;;;18.97;100.00
19236;BME280;9752;54.270;12.470;2022-08-19T22:57:19;101106.25;;;18.91;100.00
19236;BME280;9752;54.270;12.470;2022-08-19T23:02:23;101100.88;;;18.86;100.00
19236;BME280;9752;54.270;12.470;2022-08-19T23:07:25;101106.41;;;18.96;100.00
19236;BME280;9752;54.270;12.470;2022-08-19T23:12:30;101097.00;;;19.04;100.00
19236;BME280;9752;54.270;12.470;2022-08-19T23:17:32;101094.50;;;19.07;100.00
19236;BME280;9752;54.270;12.470;2022-08-19T23:22:36;101091.94;;;19.10;100.00
19236;BME280;9752;54.270;12.470;2022-08-19T23:27:40;101095.47;;;19.10;100.00
19236;BME280;9752;54.270;12.470;2022-08-19T23:33:00;101088.47;;;19.11;100.00
19236;BME280;9752;54.270;12.470;2022-08-19T23:38:07;101084.97;;;19.10;100.00
19236;BME280;9752;54.270;12.470;2022-08-19T23:43:10;101083.16;;;19.09;100.00
19236;BME280;9752;54.270;12.470;2022-08-19T23:48:13;101078.50;;;18.99;100.00
19236;BME280;9752;54.270;12.470;2022-08-19T23:53:16;101075.66;;;18.93;100.00
19236;BME280;9752;54.270;12.470;2022-08-19T23:58:19;101064.91;;;18.85;100.00
